Time;durP1;ratioP1;P1;durP2;ratioP2;P2;SDS_P1;SDS_P2;PMS_P1;PMS_P2;Temp;Humidity;BMP_temperature;BMP_pressure;BME280_temperature;BME280_humidity;BME280_pressure;Samples;Min_cycle;Max_cycle;Signal;HPM_P1;HPM_P2
2022/05/26 00:02:24;;;;;;;55.73;31.23;;;;;;;;;;10328109;28;20064;-73
2022/05/26 00:07:24;;;;;;;57.00;33.40;;;;;;;;;;10329582;28;20559;-73
2022/05/26 00:12:24;;;;;;;70.15;35.22;;;;;;;;;;10327727;28;20430;-74
2022/05/26 00:17:24;;;;;;;69.25;35.53;;;;;;;;;;10327930;28;20023;-72
2022/05/26 00:22:25;;;;;;;76.80;36.90;;;;;;;;;;10327515;28;20027;-74
2022/05/26 00:27:26;;;;;;;70.93;37.17;;;;;;;;;;10327116;28;20054;-71
2022/05/26 00:32:26;;;;;;;74.63;36.47;;;;;;;;;;10327373;28;20018;-74
2022/05/26 00:37:26;;;;;;;75.50;37.97;;;;;;;;;;10310751;28;20146;-74
2022/05/26 00:42:27;;;;;;;79.00;38.77;;;;;;;;;;10328248;28;20452;-79
2022/05/26 00:47:28;;;;;;;75.60;39.23;;;;;;;;;;10326374;28;20022;-73
2022/05/26 00:52:30;;;;;;;79.90;37.25;;;;;;;;;;10326021;28;20022;-73
2022/05/26 00:57:34;;;;;;;67.28;35.78;;;;;;;;;;10326097;28;20037;-73
2022/05/26 01:02:36;;;;;;;76.90;36.85;;;;;;;;;;10325696;28;20498;-78
2022/05/26 01:07:37;;;;;;;73.10;35.05;;;;;;;;;;10325854;28;20034;-72
2022/05/26 01:12:37;;;;;;;74.80;37.00;;;;;;;;;;10326903;28;20514;-72
2022/05/26 01:17:38;;;;;;;71.47;36.42;;;;;;;;;;10325683;28;20034;-72
2022/05/26 01:22:56;;;;;;;75.90;37.03;;;;;;;;;;10325217;28;20502;-72
2022/05/26 01:28:11;;;;;;;76.63;38.53;;;;;;;;;;10326083;28;20055;-74
2022/05/26 01:33:14;;;;;;;88.60;41.38;;;;;;;;;;10326134;28;20417;-72
2022/05/26 01:38:37;;;;;;;89.28;42.45;;;;;;;;;;10324515;28;20092;-72
2022/05/26 01:43:49;;;;;;;88.00;43.78;;;;;;;;;;10325780;28;20018;-71
2022/05/26 01:48:53;;;;;;;76.28;41.10;;;;;;;;;;10324183;28;20446;-72
2022/05/26 01:54:11;;;;;;;88.07;39.70;;;;;;;;;;10324108;28;20030;-71
2022/05/26 01:59:17;;;;;;;82.95;40.65;;;;;;;;;;10324961;28;20105;-78
2022/05/26 02:04:21;;;;;;;78.22;40.95;;;;;;;;;;10322999;28;20044;-71
2022/05/26 02:09:24;;;;;;;86.68;42.17;;;;;;;;;;10324103;28;20387;-72
2022/05/26 02:14:31;;;;;;;78.50;43.08;;;;;;;;;;10324826;28;20084;-69
2022/05/26 02:19:34;;;;;;;78.68;40.15;;;;;;;;;;10306622;28;20030;-72
2022/05/26 02:24:40;;;;;;;73.80;39.33;;;;;;;;;;10322660;28;20105;-72
2022/05/26 02:29:53;;;;;;;72.93;37.55;;;;;;;;;;10322082;28;20056;-72
2022/05/26 02:34:56;;;;;;;79.10;38.30;;;;;;;;;;10323541;28;20034;-72
2022/05/26 02:39:56;;;;;;;79.57;40.28;;;;;;;;;;10306209;28;20026;-71
2022/05/26 02:44:57;;;;;;;80.20;40.03;;;;;;;;;;10322428;28;20025;-71
2022/05/26 02:50:05;;;;;;;82.55;40.88;;;;;;;;;;10322182;28;20022;-72
2022/05/26 02:55:06;;;;;;;;;;;;;;;;;;10322844;28;20394;-72
2022/05/26 03:00:09;;;;;;;86.40;41.83;;;;;;;;;;10321185;28;19917;-75
2022/05/26 03:05:22;;;;;;;81.05;39.67;;;;;;;;;;10414853;23;20516;-72
2022/05/26 03:10:24;;;;;;;78.10;38.05;;;;;;;;;;10443860;28;20100;-72
2022/05/26 03:15:25;;;;;;;77.68;37.25;;;;;;;;;;10427478;28;20835;-72
2022/05/26 03:20:25;;;;;;;74.43;36.83;;;;;;;;;;10426538;28;20128;-77
2022/05/26 03:25:25;;;;;;;77.40;37.87;;;;;;;;;;10444656;28;20910;-72
2022/05/26 03:30:25;;;;;;;86.82;41.92;;;;;;;;;;10444578;28;20113;-72
2022/05/26 03:40:52;;;;;;;83.30;39.38;;;;;;;;;;10444628;28;20025;-72
2022/05/26 03:45:52;;;;;;;78.47;38.17;;;;;;;;;;10443156;28;20370;-71
2022/05/26 03:50:53;;;;;;;77.47;38.17;;;;;;;;;;10442725;28;20119;-72
2022/05/26 03:55:53;;;;;;;77.80;37.60;;;;;;;;;;10442809;28;20035;-72
2022/05/26 04:00:53;;;;;;;79.20;39.58;;;;;;;;;;10442367;28;20033;-71
2022/05/26 04:05:55;;;;;;;71.78;36.42;;;;;;;;;;10443167;28;20085;-73
2022/05/26 04:10:55;;;;;;;72.80;36.42;;;;;;;;;;10442342;28;20024;-74
2022/05/26 04:15:55;;;;;;;70.22;34.92;;;;;;;;;;10442426;28;20032;-73
2022/05/26 04:21:09;;;;;;;77.50;36.15;;;;;;;;;;10425121;28;20033;-73
2022/05/26 04:26:10;;;;;;;65.68;36.47;;;;;;;;;;10441740;28;20029;-71
2022/05/26 04:31:11;;;;;;;74.47;36.95;;;;;;;;;;10448890;28;20443;-72
2022/05/26 04:36:11;;;;;;;75.47;36.83;;;;;;;;;;10450344;28;20082;-74
2022/05/26 04:41:11;;;;;;;69.38;34.22;;;;;;;;;;10450326;28;20866;-71
2022/05/26 04:46:11;;;;;;;66.85;33.85;;;;;;;;;;10449658;28;20461;-72
2022/05/26 04:51:12;;;;;;;62.17;30.35;;;;;;;;;;10448664;28;20037;-77
2022/05/26 04:56:12;;;;;;;64.28;31.65;;;;;;;;;;10450045;28;20083;-72
2022/05/26 05:01:13;;;;;;;57.13;28.80;;;;;;;;;;10450010;28;20029;-69
2022/05/26 05:06:13;;;;;;;57.42;28.85;;;;;;;;;;10448107;28;20398;-72
2022/05/26 05:11:14;;;;;;;60.35;28.67;;;;;;;;;;10447758;28;20404;-73
2022/05/26 05:16:19;;;;;;;62.88;29.30;;;;;;;;;;10447228;28;20401;-75
2022/05/26 05:21:33;;;;;;;55.30;28.55;;;;;;;;;;10447955;28;20475;-71
2022/05/26 05:26:35;;;;;;;50.78;25.55;;;;;;;;;;10446468;28;20020;-72
2022/05/26 05:31:42;;;;;;;49.42;24.10;;;;;;;;;;10446968;28;20029;-72
2022/05/26 05:36:43;;;;;;;54.05;24.63;;;;;;;;;;10445974;28;20021;-72
2022/05/26 05:41:43;;;;;;;45.97;21.73;;;;;;;;;;10447286;28;20024;-72
2022/05/26 05:46:59;;;;;;;35.53;19.47;;;;;;;;;;10445715;28;20108;-76
2022/05/26 05:52:19;;;;;;;40.10;19.98;;;;;;;;;;10446248;28;20275;-72
2022/05/26 05:57:19;;;;;;;37.90;18.17;;;;;;;;;;10445900;28;20024;-76
2022/05/26 06:02:19;;;;;;;39.50;20.40;;;;;;;;;;10445645;28;20036;-75
2022/05/26 06:07:21;;;;;;;45.95;18.80;;;;;;;;;;10445263;28;20554;-71
2022/05/26 06:12:21;;;;;;;37.53;18.55;;;;;;;;;;10445656;28;20029;-72
2022/05/26 06:17:21;;;;;;;36.33;19.30;;;;;;;;;;10429201;28;20024;-73
2022/05/26 06:22:22;;;;;;;35.27;17.93;;;;;;;;;;10445089;28;20035;-71
2022/05/26 06:38:12;;;;;;;38.67;19.08;;;;;;;;;;10434863;28;20036;-72
2022/05/26 06:43:14;;;;;;;36.93;17.77;;;;;;;;;;10444282;28;20025;-73
2022/05/26 06:48:15;;;;;;;42.42;17.73;;;;;;;;;;10444080;28;20094;-72
2022/05/26 06:53:15;;;;;;;35.45;17.10;;;;;;;;;;10443208;28;20050;-72
2022/05/26 06:58:15;;;;;;;45.03;17.05;;;;;;;;;;10445060;28;20037;-72
2022/05/26 07:03:16;;;;;;;34.42;15.05;;;;;;;;;;10443287;28;20070;-73
2022/05/26 07:08:16;;;;;;;26.25;13.68;;;;;;;;;;10442943;28;20013;-77
2022/05/26 07:13:17;;;;;;;31.30;14.02;;;;;;;;;;10443480;28;20115;-72
2022/05/26 07:18:17;;;;;;;29.33;13.48;;;;;;;;;;10443504;28;20021;-71
2022/05/26 07:23:17;;;;;;;22.53;11.20;;;;;;;;;;10442911;28;20029;-71
2022/05/26 07:28:18;;;;;;;22.40;8.77;;;;;;;;;;10441892;28;20013;-71
2022/05/26 07:33:18;;;;;;;28.77;9.00;;;;;;;;;;10444068;28;20021;-74
2022/05/26 07:43:38;;;;;;;16.58;6.28;;;;;;;;;;10444400;28;20021;-71
2022/05/26 07:48:38;;;;;;;13.32;4.20;;;;;;;;;;10444568;28;20021;-74
2022/05/26 07:53:38;;;;;;;10.02;3.05;;;;;;;;;;10442593;28;20035;-71
2022/05/26 07:58:39;;;;;;;11.85;3.33;;;;;;;;;;10444013;28;20042;-72
2022/05/26 08:03:39;;;;;;;8.82;2.97;;;;;;;;;;10443579;28;20488;-71
2022/05/26 08:08:39;;;;;;;17.20;2.97;;;;;;;;;;10450373;28;20013;-73
2022/05/26 08:13:40;;;;;;;8.80;3.17;;;;;;;;;;10449595;28;20127;-72
2022/05/26 08:18:41;;;;;;;13.18;2.53;;;;;;;;;;10449652;28;20075;-72
2022/05/26 08:23:41;;;;;;;5.82;2.33;;;;;;;;;;10450129;28;20028;-73
2022/05/26 08:28:42;;;;;;;9.35;3.33;;;;;;;;;;10449270;28;20512;-71
2022/05/26 08:33:42;;;;;;;10.75;2.92;;;;;;;;;;10450411;28;20112;-71
2022/05/26 08:38:45;;;;;;;10.10;2.38;;;;;;;;;;10449254;28;20107;-73
2022/05/26 08:44:06;;;;;;;9.70;2.47;;;;;;;;;;10447388;28;20040;-71
2022/05/26 08:49:07;;;;;;;10.43;3.25;;;;;;;;;;10448907;28;20024;-72
2022/05/26 08:54:12;;;;;;;13.32;3.00;;;;;;;;;;10449864;28;20031;-73
2022/05/26 08:59:13;;;;;;;15.13;2.73;;;;;;;;;;10448621;28;20017;-77
2022/05/26 09:04:14;;;;;;;8.23;2.67;;;;;;;;;;10447856;28;20048;-71
2022/05/26 09:14:41;;;;;;;7.95;2.63;;;;;;;;;;10450545;28;20021;-71
2022/05/26 09:19:42;;;;;;;13.20;2.65;;;;;;;;;;10447083;28;20461;-76
2022/05/26 09:24:42;;;;;;;8.90;2.53;;;;;;;;;;10447808;28;20021;-71
2022/05/26 09:29:43;;;;;;;12.07;2.40;;;;;;;;;;10447172;28;20436;-73
2022/05/26 09:35:00;;;;;;;5.53;2.45;;;;;;;;;;10447007;28;20757;-72
2022/05/26 09:40:11;;;;;;;12.45;3.03;;;;;;;;;;10446358;28;20094;-73
2022/05/26 09:45:13;;;;;;;7.35;2.08;;;;;;;;;;10446752;28;20017;-71
2022/05/26 09:50:32;;;;;;;8.68;2.50;;;;;;;;;;10446644;28;20021;-71
2022/05/26 09:55:40;;;;;;;4.07;1.50;;;;;;;;;;10447083;28;20603;-72
2022/05/26 10:00:44;;;;;;;4.63;2.20;;;;;;;;;;10446361;28;20056;-72
2022/05/26 10:06:04;;;;;;;5.43;2.43;;;;;;;;;;10445464;28;20053;-76
2022/05/26 10:11:09;;;;;;;8.68;3.85;;;;;;;;;;10446655;28;20021;-75
2022/05/26 10:16:17;;;;;;;5.40;1.90;;;;;;;;;;10444952;28;20108;-71
2022/05/26 10:21:36;;;;;;;8.60;2.45;;;;;;;;;;10446200;28;20468;-78
2022/05/26 10:26:48;;;;;;;14.60;2.38;;;;;;;;;;10444537;28;20021;-78
2022/05/26 10:31:51;;;;;;;4.45;1.83;;;;;;;;;;10444757;28;20021;-74
2022/05/26 10:36:58;;;;;;;11.63;1.92;;;;;;;;;;10444376;28;20028;-71
2022/05/26 10:42:18;;;;;;;6.82;2.30;;;;;;;;;;10444372;28;20027;-72
2022/05/26 10:47:23;;;;;;;4.28;1.70;;;;;;;;;;10444119;28;20123;-72
2022/05/26 10:52:44;;;;;;;5.20;1.63;;;;;;;;;;10444420;28;20024;-71
2022/05/26 10:57:58;;;;;;;6.00;1.42;;;;;;;;;;10444285;28;20021;-71
2022/05/26 11:03:20;;;;;;;11.32;2.13;;;;;;;;;;10444783;28;20076;-75
2022/05/26 11:08:23;;;;;;;8.60;2.30;;;;;;;;;;10443322;28;20032;-73
2022/05/26 11:13:34;;;;;;;4.82;2.08;;;;;;;;;;10444016;28;20410;-72
2022/05/26 11:18:37;;;;;;;9.48;3.35;;;;;;;;;;10444501;28;20024;-72
2022/05/26 11:23:38;;;;;;;8.93;2.40;;;;;;;;;;10443041;28;20025;-73
2022/05/26 11:28:47;;;;;;;16.42;3.47;;;;;;;;;;10444306;28;20018;-72
2022/05/26 11:39:40;;;;;;;5.53;2.60;;;;;;;;;;10423326;28;20025;-73
2022/05/26 11:44:44;;;;;;;14.25;2.60;;;;;;;;;;10435169;28;20761;-72
2022/05/26 11:49:45;;;;;;;10.50;2.97;;;;;;;;;;10434505;28;20104;-73
2022/05/26 11:54:55;;;;;;;7.37;3.60;;;;;;;;;;10451186;28;20043;-75
2022/05/26 12:00:16;;;;;;;9.73;3.25;;;;;;;;;;10450898;28;20044;-72
2022/05/26 12:05:28;;;;;;;11.98;2.88;;;;;;;;;;10450211;28;20495;-72
2022/05/26 12:10:36;;;;;;;9.88;2.25;;;;;;;;;;10450164;28;20512;-73
2022/05/26 12:15:36;;;;;;;9.50;3.25;;;;;;;;;;10451335;28;20033;-73
2022/05/26 12:20:37;;;;;;;9.23;2.63;;;;;;;;;;10449879;28;20025;-73
2022/05/26 12:25:41;;;;;;;11.02;1.90;;;;;;;;;;10449851;28;20653;-72
2022/05/26 12:31:01;;;;;;;7.85;2.45;;;;;;;;;;10451454;28;20063;-73
2022/05/26 12:36:02;;;;;;;7.22;3.10;;;;;;;;;;10450435;28;20033;-71
2022/05/26 12:41:31;;;;;;;5.13;2.50;;;;;;;;;;10449084;28;20477;-71
2022/05/26 12:46:34;;;;;;;8.65;2.83;;;;;;;;;;10379154;28;20067;-78
2022/05/26 12:51:35;;;;;;;9.68;2.95;;;;;;;;;;10447053;28;20028;-78
2022/05/26 12:56:45;;;;;;;5.72;2.85;;;;;;;;;;10448905;28;20056;-72
2022/05/26 13:01:47;;;;;;;11.15;3.00;;;;;;;;;;10448046;28;20062;-73
2022/05/26 13:06:52;;;;;;;10.00;3.00;;;;;;;;;;10448139;28;20051;-72
2022/05/26 13:11:54;;;;;;;9.00;3.70;;;;;;;;;;10447161;28;20184;-76
2022/05/26 13:16:59;;;;;;;9.52;3.65;;;;;;;;;;10447618;28;20025;-72
2022/05/26 13:22:00;;;;;;;8.50;3.38;;;;;;;;;;10430647;28;20029;-71
2022/05/26 13:27:02;;;;;;;13.07;4.67;;;;;;;;;;10448077;28;20025;-72
2022/05/26 13:37:25;;;;;;;18.63;5.50;;;;;;;;;;10448798;28;20120;-71
2022/05/26 13:42:25;;;;;;;9.82;3.40;;;;;;;;;;10447031;28;20086;-73
2022/05/26 13:47:25;;;;;;;10.47;4.50;;;;;;;;;;10446774;28;20683;-73
2022/05/26 13:52:27;;;;;;;10.68;4.55;;;;;;;;;;10446289;28;20457;-74
2022/05/26 13:57:30;;;;;;;12.20;4.82;;;;;;;;;;10446336;28;20024;-74
2022/05/26 14:02:35;;;;;;;12.07;4.45;;;;;;;;;;10445843;28;20082;-72
2022/05/26 14:07:37;;;;;;;13.32;5.75;;;;;;;;;;10445755;28;20033;-71
2022/05/26 14:12:37;;;;;;;13.68;5.10;;;;;;;;;;10446830;28;20032;-74
2022/05/26 14:17:39;;;;;;;9.43;4.90;;;;;;;;;;10446343;28;20424;-71
2022/05/26 14:22:45;;;;;;;14.95;4.95;;;;;;;;;;10444900;28;20017;-73
2022/05/26 14:27:57;;;;;;;9.77;4.63;;;;;;;;;;10444831;28;20036;-71
2022/05/26 14:33:07;;;;;;;11.32;5.15;;;;;;;;;;10444753;28;20099;-71
2022/05/26 14:38:08;;;;;;;13.23;4.97;;;;;;;;;;10445648;28;20033;-73
2022/05/26 14:43:08;;;;;;;18.17;5.43;;;;;;;;;;10427708;28;20044;-73
2022/05/26 14:48:09;;;;;;;17.33;5.65;;;;;;;;;;10443793;28;20021;-72
2022/05/26 14:53:10;;;;;;;9.70;5.10;;;;;;;;;;10427367;28;20017;-73
2022/05/26 14:58:15;;;;;;;19.08;7.30;;;;;;;;;;10444988;28;20028;-72
2022/05/26 15:03:16;;;;;;;15.05;5.97;;;;;;;;;;10445065;28;20041;-72
2022/05/26 15:08:19;;;;;;;14.52;5.70;;;;;;;;;;10443666;28;20028;-78
2022/05/26 15:13:20;;;;;;;14.00;5.43;;;;;;;;;;10442399;28;20119;-73
2022/05/26 15:18:21;;;;;;;15.07;7.20;;;;;;;;;;10444393;28;20031;-74
2022/05/26 15:23:21;;;;;;;12.88;5.90;;;;;;;;;;10442407;28;20526;-76
2022/05/26 15:28:21;;;;;;;13.00;5.85;;;;;;;;;;10442109;28;20025;-72
2022/05/26 15:33:21;;;;;;;12.73;6.15;;;;;;;;;;10442419;28;20216;-74
2022/05/26 15:38:22;;;;;;;12.80;6.38;;;;;;;;;;10442565;28;20021;-74
2022/05/26 15:43:22;;;;;;;12.00;6.07;;;;;;;;;;10442275;28;20063;-74
2022/05/26 15:48:23;;;;;;;11.60;5.88;;;;;;;;;;10442170;28;20029;-74
2022/05/26 15:53:29;;;;;;;14.68;6.03;;;;;;;;;;10442177;28;20032;-72
2022/05/26 15:58:30;;;;;;;14.00;7.25;;;;;;;;;;10441915;28;20021;-72
2022/05/26 16:03:31;;;;;;;12.43;6.57;;;;;;;;;;10442303;28;20040;-72
2022/05/26 16:08:31;;;;;;;13.85;6.78;;;;;;;;;;10442458;28;20124;-77
2022/05/26 16:13:32;;;;;;;15.13;6.68;;;;;;;;;;10442013;28;20029;-73
2022/05/26 16:18:32;;;;;;;11.23;7.15;;;;;;;;;;10425725;28;20036;-74
2022/05/26 16:23:32;;;;;;;19.48;6.82;;;;;;;;;;10442541;28;20024;-73
2022/05/26 16:28:33;;;;;;;19.13;7.28;;;;;;;;;;10449447;28;20029;-72
2022/05/26 16:33:33;;;;;;;11.77;7.47;;;;;;;;;;10449676;28;20025;-73
2022/05/26 16:38:34;;;;;;;11.80;6.73;;;;;;;;;;10449625;28;20025;-73
2022/05/26 16:43:34;;;;;;;23.48;7.82;;;;;;;;;;10449107;28;20136;-74
2022/05/26 16:48:36;;;;;;;16.30;7.00;;;;;;;;;;10449947;28;20013;-72
2022/05/26 16:53:37;;;;;;;13.65;7.00;;;;;;;;;;10448346;28;20268;-76
2022/05/26 16:58:38;;;;;;;15.23;6.80;;;;;;;;;;10431631;28;20039;-73
2022/05/26 17:03:38;;;;;;;15.90;7.28;;;;;;;;;;10448903;28;20516;-73
2022/05/26 17:08:40;;;;;;;14.43;6.83;;;;;;;;;;10448430;28;20404;-72
2022/05/26 17:24:19;;;;;;;13.38;6.90;;;;;;;;;;10448905;28;20025;-73
2022/05/26 17:29:20;;;;;;;17.58;7.72;;;;;;;;;;10432317;28;20127;-80
2022/05/26 17:34:20;;;;;;;14.20;7.20;;;;;;;;;;10447447;28;20052;-78
2022/05/26 17:39:28;;;;;;;21.25;8.05;;;;;;;;;;10448223;28;20544;-72
2022/05/26 17:44:41;;;;;;;20.80;8.45;;;;;;;;;;10441170;28;20025;-75
2022/05/26 17:49:41;;;;;;;17.50;7.80;;;;;;;;;;10437977;28;20033;-79
2022/05/26 17:54:44;;;;;;;18.23;7.33;;;;;;;;;;10432136;28;20052;-76
2022/05/26 18:05:03;;;;;;;18.30;8.60;;;;;;;;;;10445859;28;20052;-75
2022/05/26 18:10:04;;;;;;;17.52;8.52;;;;;;;;;;10440218;28;20444;-75
2022/05/26 18:15:06;;;;;;;18.70;9.23;;;;;;;;;;10443767;28;20086;-76
2022/05/26 18:20:07;;;;;;;18.98;9.23;;;;;;;;;;10436048;28;20374;-76
2022/05/26 18:25:08;;;;;;;18.75;9.38;;;;;;;;;;10430336;28;20136;-71
2022/05/26 18:30:09;;;;;;;17.88;8.68;;;;;;;;;;10435157;28;20523;-75
2022/05/26 18:35:13;;;;;;;13.40;9.00;;;;;;;;;;10432610;28;20472;-71
2022/05/26 18:40:17;;;;;;;13.95;8.43;;;;;;;;;;10429000;28;20519;-77
2022/05/26 18:45:18;;;;;;;15.48;10.48;;;;;;;;;;10435334;28;20426;-76
2022/05/26 18:50:18;;;;;;;13.57;8.90;;;;;;;;;;10428268;28;20116;-70
2022/05/26 18:55:31;;;;;;;13.38;9.70;;;;;;;;;;10429571;28;20075;-75
2022/05/26 19:00:31;;;;;;;16.55;7.90;;;;;;;;;;10429750;28;20025;-73
2022/05/26 19:05:33;;;;;;;16.75;9.30;;;;;;;;;;10418135;28;20512;-75
2022/05/26 19:10:34;;;;;;;16.30;9.63;;;;;;;;;;10421945;28;20500;-77
2022/05/26 19:15:36;;;;;;;16.55;9.98;;;;;;;;;;10432818;28;20049;-72
2022/05/26 19:20:41;;;;;;;16.77;9.88;;;;;;;;;;10426961;28;20421;-72
2022/05/26 19:25:49;;;;;;;16.25;9.88;;;;;;;;;;10429239;28;20528;-72
2022/05/26 19:30:51;;;;;;;17.67;9.40;;;;;;;;;;10428468;28;20028;-74
2022/05/26 19:35:51;;;;;;;20.30;10.05;;;;;;;;;;10421350;28;20179;-72
2022/05/26 19:40:52;;;;;;;17.63;10.88;;;;;;;;;;10432722;28;20081;-72
2022/05/26 19:45:53;;;;;;;15.73;9.40;;;;;;;;;;10447471;23;20025;-72
2022/05/26 19:50:53;;;;;;;18.75;10.43;;;;;;;;;;10340446;28;20545;-72
2022/05/26 19:55:53;;;;;;;20.10;10.00;;;;;;;;;;10350781;28;20398;-72
2022/05/26 20:00:55;;;;;;;13.23;9.97;;;;;;;;;;10349724;28;20422;-72
2022/05/26 20:11:02;;;;;;;11.95;8.90;;;;;;;;;;10350359;28;20559;-71
2022/05/26 20:16:03;;;;;;;20.50;10.03;;;;;;;;;;10336964;28;20026;-71
2022/05/26 20:21:04;;;;;;;15.88;9.55;;;;;;;;;;10346586;28;20030;-76
2022/05/26 20:26:04;;;;;;;16.58;10.52;;;;;;;;;;10338388;28;20525;-75
2022/05/26 20:31:05;;;;;;;18.05;10.45;;;;;;;;;;10332270;28;20537;-73
2022/05/26 20:36:05;;;;;;;16.83;9.43;;;;;;;;;;10326984;28;20106;-71
2022/05/26 20:41:06;;;;;;;13.50;8.30;;;;;;;;;;10333108;28;20128;-76
2022/05/26 20:46:08;;;;;;;20.27;8.27;;;;;;;;;;10336032;28;20269;-72
2022/05/26 20:51:08;;;;;;;11.82;8.85;;;;;;;;;;10336076;28;20095;-71
2022/05/26 20:56:09;;;;;;;14.63;8.40;;;;;;;;;;10336397;28;20037;-73
2022/05/26 21:01:10;;;;;;;13.43;7.75;;;;;;;;;;10329072;28;20042;-72
2022/05/26 21:06:12;;;;;;;21.13;8.73;;;;;;;;;;10355386;28;20168;-76
2022/05/26 21:11:12;;;;;;;11.63;6.75;;;;;;;;;;10361071;28;20095;-79
2022/05/26 21:16:13;;;;;;;8.50;6.25;;;;;;;;;;10360188;28;20026;-70
2022/05/26 21:21:15;;;;;;;10.15;7.18;;;;;;;;;;10355350;28;20026;-73
2022/05/26 21:26:16;;;;;;;11.80;6.22;;;;;;;;;;10361334;28;20486;-73
2022/05/26 21:31:18;;;;;;;10.80;5.73;;;;;;;;;;10359764;28;20029;-73
2022/05/26 21:36:19;;;;;;;10.25;5.70;;;;;;;;;;10356370;28;20426;-72
2022/05/26 21:41:19;;;;;;;9.18;5.60;;;;;;;;;;10358884;28;20026;-74
2022/05/26 21:46:20;;;;;;;8.52;5.63;;;;;;;;;;10343690;28;20022;-72
2022/05/26 21:51:26;;;;;;;6.90;4.85;;;;;;;;;;10358697;28;20470;-76
2022/05/26 21:56:26;;;;;;;9.18;4.75;;;;;;;;;;10340834;28;20037;-73
2022/05/26 22:01:26;;;;;;;6.28;4.63;;;;;;;;;;10353762;28;20022;-73
2022/05/26 22:11:46;;;;;;;14.20;4.78;;;;;;;;;;10358116;28;20112;-71
2022/05/26 22:16:51;;;;;;;6.15;3.88;;;;;;;;;;10342235;28;20033;-75
2022/05/26 22:22:07;;;;;;;5.97;4.35;;;;;;;;;;10358029;28;20049;-74
2022/05/26 22:27:08;;;;;;;6.07;3.58;;;;;;;;;;10357592;28;20034;-73
2022/05/26 22:32:11;;;;;;;5.78;3.35;;;;;;;;;;10358475;28;20038;-71
2022/05/26 22:37:11;;;;;;;7.60;3.70;;;;;;;;;;10356996;28;20021;-73
2022/05/26 22:42:12;;;;;;;8.07;3.45;;;;;;;;;;10355346;28;20046;-70
2022/05/26 22:47:12;;;;;;;5.13;3.10;;;;;;;;;;10352434;28;20026;-78
2022/05/26 22:52:12;;;;;;;6.43;3.10;;;;;;;;;;10340751;28;20284;-75
2022/05/26 22:57:12;;;;;;;4.90;3.15;;;;;;;;;;10349100;28;20091;-75
2022/05/26 23:02:13;;;;;;;4.40;2.90;;;;;;;;;;10346383;28;20037;-75
2022/05/26 23:07:13;;;;;;;4.90;2.80;;;;;;;;;;10344400;28;20572;-72
2022/05/26 23:12:13;;;;;;;5.82;3.10;;;;;;;;;;10347614;28;20065;-72
2022/05/26 23:17:14;;;;;;;9.13;3.67;;;;;;;;;;10342264;28;20026;-75
2022/05/26 23:22:14;;;;;;;5.43;3.28;;;;;;;;;;10342754;28;20148;-79
2022/05/26 23:27:14;;;;;;;9.20;3.67;;;;;;;;;;10341120;28;20036;-75
2022/05/26 23:32:15;;;;;;;6.85;3.80;;;;;;;;;;10341701;28;20030;-76
2022/05/26 23:37:15;;;;;;;7.75;3.33;;;;;;;;;;10348225;28;20026;-80
2022/05/26 23:47:34;;;;;;;5.63;3.83;;;;;;;;;;10340011;28;20117;-75
2022/05/26 23:52:35;;;;;;;8.13;3.78;;;;;;;;;;10346700;28;20029;-71
2022/05/26 23:57:48;;;;;;;5.65;3.97;;;;;;;;;;10356520;28;20093;-69
